Mpanda Airport

Jump to: basic info | weather | comments

Related pages: nearby airports | nearby navaids | notams | map

Basic information (top)

Codes: HTMP
Location: lon -6.350000, lat 31.083000, elev 3,520 ft / 1,073 m msl
Status: small_airport

Weather (top)

Current conditions for Sumbawanga Airport 103nm (191km) SSE (rec'd 2014/04/23 21:00Z):

HTSU 232100Z 00000KT 9999 FEW018 BKN240 18/15 Q1022

Airport forecast for Julius Nyerere International Airport 485nm (899km) E (rec'd 2014/04/23 12:51Z):

TAF HTDA 231000Z 2312/2418 13005KT 8000 TS/SHRA BKN021 FEW022CB BKN080 FM 231800 00000KT 9999 SCT022 FEW023CB SCT080 PROB30 
      TEMPO 2403/2410 21005KT SHRA SCT021 FEW023CB SCT090 
      BECMG 2412/2416 13005KT 9999 SCT023 FEW025CB BKN070

Latest comments (top)

re: Uwanja wa ndege Mpanda: Thanks God Mpanda is on the right path, ... [read]

Uwanja wa ndege Mpanda: Uwanja ni mzuri saana, [read]

matengenezo: uwanja ukikamilika utakuwa mzuri.mmejitahidi. [read]

More... (top)

See also NOTAMs and nearby airports and navaids, or visit the Mpanda Airport page at the main OurAirports website..